• Join FlightAware (Why Join?)
  • Login
  • US Flag 
02:03AM EST


 

Airport Tracker/Info


-or-


 

Live Flight TrackerFlight Track Log ✈ EJA951 ✈ 19-Mar-2014 ✈ KSDL - KTEB

Flight Track Log - Related Links

Times and Time Zones

All times are in EDT time to prevent confusion due to time zone crossing. See the EJA951 flight status page for this flight to view local times or setup timezone preferences in your user account.

Time Position Orientation Groundspeed Altitude Reporting Facility
EDT Latitude Longitude Course Direction KTS MPH feet Rate Location/Type
02:22PM 33.6000 -111.9333 270° West 195 224 2,100  Level Phoenix TRACON
02:23PM 33.6000 -111.9833 270° West 225 259 4,500 2,760 Climbing Phoenix TRACON
02:24PM 33.6272 -112.0086 322° Northwest 245 282 5,800 1,980 Climbing Albuquerque Center
02:25PM 33.6900 -111.9919 12° North 268 308 7,800 1,020 Climbing Albuquerque Center
02:26PM 33.6917 -111.9011 89° East 281 323 8,000 1,500 Climbing Albuquerque Center
02:27PM 33.6928 -111.7850 89° East 292 336 11,000 2,520 Climbing Albuquerque Center
02:28PM 33.6928 -111.6833 90° East 305 351 13,300 2,160 Climbing Albuquerque Center
02:29PM 33.6919 -111.5758 91° East 322 371 15,500 2,040 Climbing Albuquerque Center
02:30PM 33.6964 -111.4656 87° East 335 386 17,500 1,740 Climbing Albuquerque Center
02:31PM 33.7289 -111.3589 70° East 344 396 19,200 1,500 Climbing Albuquerque Center
02:32PM 33.7722 -111.2197 69° East 373 429 20,600 1,260 Climbing Albuquerque Center
02:33PM 33.8114 -111.0931 70° East 404 465 21,900 1,200 Climbing Albuquerque Center
02:34PM 33.8522 -110.9592 70° East 420 483 23,100 1,200 Climbing Albuquerque Center
02:35PM 33.8956 -110.8178 70° East 441 507 24,500 1,440 Climbing Albuquerque Center
02:36PM 33.9403 -110.6744 69° East 454 522 26,100 1,500 Climbing Albuquerque Center
02:37PM 33.9850 -110.5289 70° East 462 532 27,600 1,560 Climbing Albuquerque Center
02:38PM 34.0297 -110.3758 71° East 470 541 29,300 1,740 Climbing Albuquerque Center
02:39PM 34.0864 -110.1922 70° East 482 555 31,200 1,680 Climbing Albuquerque Center
02:40PM 34.1339 -110.0319 70° East 489 563 32,800 1,500 Climbing Albuquerque Center
02:41PM 34.1794 -109.8811 70° East 495 570 34,300 1,500 Climbing Albuquerque Center
02:42PM 34.2319 -109.7017 70° East 504 580 36,000 1,500 Climbing Albuquerque Center
02:43PM 34.2775 -109.5486 70° East 507 583 37,400 1,260 Climbing Albuquerque Center
02:44PM 34.3522 -109.3839 61° Northeast 502 578 38,700 720 Climbing Albuquerque Center
02:45PM 34.4183 -109.2406 61° Northeast 505 581 39,000 120 Climbing Albuquerque Center
02:46PM 34.4992 -109.0656 61° Northeast 521 600 39,000  Level Albuquerque Center
02:47PM 34.5706 -108.9081 61° Northeast 541 623 39,000  Level Albuquerque Center
02:48PM 34.6544 -108.7217 61° Northeast 556 640 39,000  Level Albuquerque Center
02:50PM 34.7267 -108.5603 61° Northeast 563 648 39,000  Level Albuquerque Center
02:51PM 34.7989 -108.3992 61° Northeast 566 651 39,000  Level Albuquerque Center
02:52PM 34.8822 -108.2111 62° Northeast 567 652 39,000  Level Albuquerque Center
02:53PM 34.9575 -108.0422 61° Northeast 569 655 39,000  Level Albuquerque Center
02:54PM 35.0319 -107.8739 62° Northeast 567 652 39,000  Level Albuquerque Center
02:55PM 35.1072 -107.7056 61° Northeast 564 649 39,000  Level Albuquerque Center
02:56PM 35.1917 -107.5125 62° Northeast 564 649 39,000  Level Albuquerque Center
02:57PM 35.2628 -107.3492 62° Northeast 568 654 39,000  Level Albuquerque Center
02:58PM 35.3425 -107.1608 63° Northeast 562 647 39,000  Level Albuquerque Center
02:59PM 35.4211 -106.9753 62° Northeast 566 651 39,000  Level Albuquerque Center
03:00PM 35.4950 -106.8031 62° Northeast 569 655 39,000  Level Albuquerque Center
03:01PM 35.5692 -106.6303 62° Northeast 572 658 39,000  Level Albuquerque Center
03:02PM 35.6475 -106.4403 63° Northeast 578 665 39,000 180 Level Albuquerque Center
03:03PM 35.7206 -106.2675 62° Northeast 573 659 39,400 360 Climbing Albuquerque Center
03:04PM 35.7872 -106.1189 61° Northeast 565 650 39,800 420 Climbing Albuquerque Center
03:05PM 35.8600 -105.9489 62° Northeast 563 648 40,300 480 Climbing Albuquerque Center
03:06PM 35.9369 -105.7497 64° Northeast 558 642 40,800 300 Climbing Albuquerque Center
03:07PM 36.0067 -105.5803 63° Northeast 553 636 41,000 60 Climbing Albuquerque Center
03:08PM 36.0822 -105.3975 63° Northeast 554 638 41,000  Level Albuquerque Center
03:09PM 36.1544 -105.2222 63° Northeast 561 646 41,000  Level Albuquerque Center
03:10PM 36.2247 -105.0472 63° Northeast 563 648 41,000  Level Albuquerque Center
03:11PM 36.2953 -104.8697 64° Northeast 566 651 41,000  Level Albuquerque Center
03:12PM 36.3672 -104.6917 63° Northeast 569 655 41,000  Level Albuquerque Center
03:13PM 36.4503 -104.4839 64° Northeast 569 655 41,000  Level Albuquerque Center
03:14PM 36.5214 -104.3053 64° Northeast 570 656 41,000  Level Albuquerque Center
03:15PM 36.5919 -104.1267 64° Northeast 569 655 41,000  Level Albuquerque Center
03:16PM 36.6669 -103.9358 64° Northeast 570 656 41,000  Level Albuquerque Center
03:17PM 36.7336 -103.7653 64° Northeast 572 658 41,000  Level Albuquerque Center
03:18PM 36.8097 -103.5672 64° Northeast 572 658 41,000  Level Albuquerque Center
03:19PM 36.8753 -103.3961 64° Northeast 573 659 41,000  Level Albuquerque Center
03:21PM 36.9519 -103.1967 64° Northeast 573 659 41,000  Level Albuquerque Center
03:22PM 37.0172 -103.0253 64° Northeast 574 661 41,000  Level Albuquerque Center
03:23PM 37.0931 -102.8247 65° Northeast 573 659 41,000  Level Albuquerque Center
03:24PM 37.1589 -102.6522 64° Northeast 575 662 41,000  Level Albuquerque Center
03:25PM 37.2342 -102.4511 65° Northeast 573 659 41,000  Level Albuquerque Center
03:26PM 37.2978 -102.2786 65° Northeast 571 657 41,000  Level Albuquerque Center
03:27PM 37.3650 -102.0933 65° Northeast 572 658 41,000  Level Albuquerque Center
03:28PM 37.4383 -101.8906 65° Northeast 571 657 41,000  Level Albuquerque Center
03:29PM 37.5344 -101.6267 65° Northeast 573 659 41,000  Level Kansas City Center
03:30PM 37.5972 -101.4517 66° East 573 659 41,000  Level Kansas City Center
03:31PM 37.6600 -101.2756 66° East 573 659 41,000  Level Kansas City Center
03:32PM 37.7256 -101.0931 66° East 574 661 41,000  Level Kansas City Center
03:33PM 37.7986 -100.8878 66° East 573 659 41,000  Level Kansas City Center
03:34PM 37.8736 -100.6753 66° East 583 671 41,000  Level Kansas City Center
03:35PM 37.9350 -100.4967 66° East 581 669 41,000  Level Kansas City Center
03:36PM 37.9967 -100.3208 66° East 576 663 41,000  Level Kansas City Center
03:37PM 38.0681 -100.1100 67° East 576 663 41,000  Level Kansas City Center
03:39PM 38.1267 -99.9333 67° East 572 658 41,000  Level Kansas City Center
03:40PM 38.1983 -99.7253 66° East 571 657 41,000  Level Kansas City Center
03:41PM 38.2583 -99.5483 67° East 572 658 41,000  Level Kansas City Center
03:42PM 38.3244 -99.3483 67° East 572 658 41,000  Level Kansas City Center
03:43PM 38.3869 -99.1614 67° East 573 659 41,000  Level Kansas City Center
03:44PM 38.4506 -98.9728 67° East 574 661 41,000  Level Kansas City Center
03:45PM 38.5147 -98.7822 67° East 582 670 41,000  Level Kansas City Center
03:46PM 38.5775 -98.5917 67° East 582 670 41,000  Level Kansas City Center
03:47PM 38.6525 -98.3619 67° East 582 670 41,000  Level Kansas City Center
03:48PM 38.7147 -98.1692 67° East 582 670 41,000  Level Kansas City Center
03:49PM 38.7767 -97.9764 68° East 582 670 41,000  Level Kansas City Center
03:50PM 38.8406 -97.7797 67° East 575 662 41,000  Level Kansas City Center
03:51PM 38.8994 -97.5947 68° East 579 666 41,000  Level Kansas City Center
03:52PM 38.9600 -97.3978 68° East 585 673 41,000  Level Kansas City Center
03:53PM 39.0247 -97.1947 68° East 583 671 41,000  Level Kansas City Center
03:54PM 39.0900 -96.9825 68° East 576 663 41,000  Level Kansas City Center
03:55PM 39.1472 -96.7975 68° East 576 663 41,000  Level Kansas City Center
03:56PM 39.2142 -96.5811 68° East 579 666 41,000  Level Kansas City Center
03:57PM 39.2683 -96.3981 69° East 579 666 41,000  Level Kansas City Center
03:58PM 39.3281 -96.2042 68° East 579 666 41,000  Level Kansas City Center
03:59PM 39.3914 -95.9903 69° East 580 667 41,000  Level Kansas City Center
04:00PM 39.4561 -95.7719 69° East 580 667 41,000  Level Kansas City Center
04:01PM 39.5114 -95.5828 69° East 580 667 41,000  Level Kansas City Center
04:02PM 39.5669 -95.3928 69° East 580 667 41,000  Level Kansas City Center
04:03PM 39.6306 -95.1708 70° East 581 669 41,000  Level Kansas City Center
04:04PM 39.6853 -94.9817 69° East 581 669 41,000  Level Kansas City Center
04:05PM 39.7486 -94.7603 70° East 581 669 41,000  Level Kansas City Center
04:06PM 39.8025 -94.5700 70° East 581 669 41,000  Level Kansas City Center
04:08PM 39.8636 -94.3481 70° East 582 670 41,000  Level Kansas City Center
04:09PM 39.9175 -94.1569 70° East 584 672 41,000  Level Kansas City Center
04:10PM 39.9758 -93.9381 71° East 592 681 41,000  Level Kansas City Center
04:11PM 40.0317 -93.7400 70° East 592 681 41,000  Level Kansas City Center
04:12PM 40.0842 -93.5397 71° East 588 677 41,000  Level Kansas City Center
04:13PM 40.1406 -93.3422 69° East 588 677 41,000  Level Kansas City Center
04:14PM 40.1925 -93.1425 71° East 587 676 41,000  Level Kansas City Center
04:15PM 40.2547 -92.9067 71° East 586 674 41,000  Level Kansas City Center
04:16PM 40.3069 -92.7150 70° East 586 674 41,000  Level Kansas City Center
04:17PM 40.3611 -92.4867 73° East 586 674 41,000  Level Kansas City Center
04:18PM 40.4192 -92.2833 69° East 586 674 41,000  Level Kansas City Center
04:19PM 40.4697 -92.0814 72° East 586 674 41,000  Level Kansas City Center
04:20PM 40.5211 -91.8797 71° East 586 674 41,000  Level Kansas City Center
04:21PM 40.5719 -91.6778 72° East 585 673 41,000  Level Kansas City Center
04:22PM 40.6325 -91.4353 72° East 585 673 41,000  Level Kansas City Center
04:23PM 40.6828 -91.2289 72° East 585 673 41,000  Level Kansas City Center
04:24PM 40.7339 -91.0250 72° East 585 673 41,000  Level Kansas City Center
04:25PM 40.7836 -90.8183 72° East 586 674 41,000  Level Kansas City Center
04:26PM 40.8333 -90.6117 72° East 588 677 41,000  Level Kansas City Center
04:27PM 40.8836 -90.4042 72° East 588 677 41,000  Level Kansas City Center
04:29PM 40.9622 -90.0692 73° East 591 680 41,000  Level Chicago Center
04:30PM 41.0117 -89.8578 73° East 591 680 41,000  Level Chicago Center
04:31PM 41.0603 -89.6472 73° East 592 681 41,000  Level Chicago Center
04:32PM 41.1075 -89.4364 73° East 592 681 41,000  Level Chicago Center
04:33PM 41.1558 -89.2264 73° East 593 682 41,000  Level Chicago Center
04:34PM 41.2028 -89.0169 73° East 592 681 41,000  Level Chicago Center
04:35PM 41.2489 -88.8067 74° East 594 684 41,000  Level Chicago Center
04:36PM 41.3050 -88.5564 73° East 590 679 41,000  Level Chicago Center
04:37PM 41.3511 -88.3458 74° East 591 680 41,000  Level Chicago Center
04:38PM 41.3961 -88.1369 74° East 589 678 41,000  Level Chicago Center
04:39PM 41.4403 -87.9278 74° East 587 676 41,000  Level Chicago Center
04:40PM 41.4856 -87.7081 75° East 589 678 41,000  Level Chicago Center
04:41PM 41.5289 -87.4992 74° East 585 673 41,000  Level Chicago Center
04:42PM 41.5772 -87.2686 74° East 580 667 41,000  Level Chicago Center
04:43PM 41.6192 -87.0611 75° East 582 670 41,000  Level Chicago Center
04:44PM 41.6636 -86.8522 74° East 584 672 41,000  Level Chicago Center
04:45PM 41.7075 -86.6200 76° East 587 676 41,000  Level Chicago Center
04:46PM 41.7506 -86.4097 75° East 587 676 41,000  Level Chicago Center
04:47PM 41.7811 -86.1961 79° East 586 674 41,000  Level Chicago Center
04:48PM 41.8028 -85.9786 82° East 587 676 41,000  Level Chicago Center
04:49PM 41.8253 -85.7619 82° East 586 674 41,000  Level Chicago Center
04:50PM 41.8472 -85.5414 82° East 588 677 41,000  Level Chicago Center
04:51PM 41.8725 -85.2764 83° East 587 676 41,000  Level Chicago Center
04:52PM 41.8958 -85.0556 82° East 591 680 41,000  Level Chicago Center
04:53PM 41.9175 -84.8367 82° East 590 679 41,000  Level Chicago Center
04:54PM 41.9394 -84.6203 82° East 586 674 41,000  Level Chicago Center
04:56PM 41.9600 -84.4036 83° East 585 673 41,000  Level Chicago Center
04:57PM 41.9819 -84.1817 82° East 582 670 41,000  Level Chicago Center
04:57PM 41.9981 -84.0050 83° East 584 672 41,000  Level Cleveland Center
04:58PM 42.0172 -83.7889 83° East 585 673 41,000  Level Cleveland Center
04:59PM 42.0389 -83.5611 83° East 585 673 41,000  Level Cleveland Center
05:00PM 42.0533 -83.3436 85° East 585 673 41,000  Level Cleveland Center
05:01PM 42.0647 -83.1097 86° East 581 669 41,000  Level Cleveland Center
05:03PM 42.0744 -82.9089 86° East 548 631 41,000  Level Cleveland Center
05:04PM 42.0828 -82.7067 87° East 546 628 41,000  Level Cleveland Center
05:05PM 42.0922 -82.5028 86° East 547 629 41,000  Level Cleveland Center
05:06PM 42.0872 -82.2633 92° East 537 618 41,000  Level Cleveland Center
05:07PM 42.0814 -82.0675 92° East 538 619 41,000  Level Cleveland Center
05:08PM 42.0733 -81.8617 93° East 539 620 41,000  Level Cleveland Center
05:09PM 42.0669 -81.6525 92° East 548 631 41,000  Level Cleveland Center
05:10PM 42.0589 -81.4425 93° East 552 635 41,000  Level Cleveland Center
05:11PM 42.0500 -81.2322 93° East 554 638 41,000  Level Cleveland Center
05:12PM 42.0403 -80.9872 93° East 555 639 41,000  Level Cleveland Center
05:13PM 42.0311 -80.7800 93° East 553 636 41,000  Level Cleveland Center
05:14PM 42.0228 -80.5744 93° East 547 629 41,000  Level Cleveland Center
05:15PM 42.0131 -80.3686 94° East 546 628 41,000  Level Cleveland Center
05:16PM 42.0036 -80.1633 93° East 546 628 41,000  Level Cleveland Center
05:17PM 41.9928 -79.9653 94° East 550 633 41,000  Level Cleveland Center
05:18PM 41.9789 -79.7189 94° East 552 635 41,000  Level Cleveland Center
05:19PM 41.9681 -79.5131 94° East 553 636 41,000  Level Cleveland Center
05:20PM 41.9567 -79.3036 94° East 560 644 41,000  Level Cleveland Center
05:21PM 41.9439 -79.0947 95° East 560 644 41,000  Level Cleveland Center
05:22PM 41.9319 -78.8881 94° East 560 644 41,000  Level Cleveland Center
05:23PM 41.9206 -78.6839 94° East 554 638 41,000  Level Cleveland Center
05:24PM 41.9036 -78.4400 95° East 552 635 41,000 -600 Level Cleveland Center
05:25PM 41.8903 -78.2389 95° East 546 628 39,800 -2,040 Descending Cleveland Center
05:26PM 41.8764 -78.0283 95° East 559 643 36,800 -2,340 Descending Cleveland Center
05:27PM 41.8522 -77.8133 99° East 560 644 35,000 -900 Descending New York Center
05:28PM 41.8047 -77.6272 109° East 515 593 35,000  Level New York Center
05:29PM 41.7550 -77.4386 109° East 527 606 35,000 -420 Level New York Center
05:30PM 41.7033 -77.2444 110° East 539 620 34,200 -1,020 Descending New York Center
05:31PM 41.6528 -77.0564 110° East 545 627 33,000 -1,500 Descending New York Center
05:32PM 41.6058 -76.8828 110° East 550 633 31,300 -2,040 Descending New York Center
05:33PM 41.5475 -76.6750 111° Southeast 544 626 29,000 -2,220 Descending New York Center
05:34PM 41.4981 -76.4961 110° East 528 608 26,900 -1,800 Descending New York Center
05:35PM 41.4572 -76.3431 110° East 512 589 25,400 -1,680 Descending New York Center
05:36PM 41.4108 -76.1789 111° Southeast 491 565 23,600 -1,800 Descending New York Center
05:37PM 41.3694 -76.0317 110° East 454 522 21,900 -1,740 Descending New York Center
05:38PM 41.3297 -75.8906 111° Southeast 429 494 20,200 -1,500 Descending New York Center
05:39PM 41.2900 -75.7467 110° East 416 479 18,900 -1,200 Descending New York Center
05:40PM 41.2478 -75.6111 112° Southeast 411 473 17,800 -1,980 Descending New York Center
05:41PM 41.1975 -75.4642 114° Southeast 398 458 15,000 -2,640 Descending New York Center
05:42PM 41.1567 -75.3372 113° Southeast 381 438 12,600 -2,220 Descending New York Center
05:43PM 41.1231 -75.2358 114° Southeast 356 410 10,600 -1,980 Descending New York Center
05:44PM 41.0892 -75.1400 115° Southeast 306 352 8,700 -2,100 Descending New York Center
05:45PM 41.0553 -75.0361 113° Southeast 279 321 6,400 -1,380 Descending New York Center
05:46PM 41.0211 -74.9486 117° Southeast 269 310 6,000 -420 Descending New York Center
05:47PM 41.0033 -74.8567 104° East 274 315 5,600 -900 Descending New York Center
05:48PM 41.0364 -74.7486 68° East 279 321 4,300 -1,260 Descending New York Center
05:49PM 41.0642 -74.6594 68° East 267 307 3,100 -660 Descending New York Center
05:50PM 41.0833 -74.5892 70° East 216 249 3,000 -60 Descending New York Center
05:51PM 41.1022 -74.5186 70° East 202 232 3,000  Level New York Center
05:52PM 41.1231 -74.4481 69° East 207 238 3,000  Level New York Center
05:53PM 41.1103 -74.3869 105° East 186 214 3,000  Level New York Center
05:54PM 41.1000 -74.3333 104° East 154 177 3,000  Level New York TRACON
05:55PM 41.0833 -74.2667 108° East 163 188 3,000  Level New York TRACON
05:56PM 41.0667 -74.2167 114° Southeast 171 197 3,000 -480 Level New York TRACON
05:57PM 41.0500 -74.1500 108° East 169 194 2,100 -540 Descending New York TRACON
05:58PM 41.0333 -74.1000 114° Southeast 163 188 2,000 -60 Descending New York TRACON
05:59PM 41.0000 -74.0667 143° Southeast 167 192 2,000  Level New York TRACON
06:00PM 40.9667 -74.0500 159° South 134 154 2,000 -240 Level New York TRACON
06:01PM 40.9167 -74.0500 180° South 120 138 1,500 -660 Descending New York TRACON
06:02PM 40.8833 -74.0500 180° South 126 145 700 -840 Descending New York TRACON